createdAt,value
2023-02-28T00:01:03.168Z,2.90
2023-02-28T00:03:05.630Z,3.03
2023-02-28T00:05:17.733Z,2.80
2023-02-28T00:07:20.101Z,2.80
2023-02-28T00:09:24.484Z,3.10
2023-02-28T00:11:26.331Z,3.03
2023-02-28T00:13:29.353Z,2.90
2023-02-28T00:15:32.033Z,2.80
2023-02-28T00:17:33.813Z,2.47
2023-02-28T00:19:35.551Z,2.87
2023-02-28T00:21:37.225Z,2.67
2023-02-28T00:23:42.110Z,2.53
2023-02-28T00:25:46.602Z,2.77
2023-02-28T00:27:52.060Z,3.07
2023-02-28T00:29:55.072Z,2.80
2023-02-28T00:31:56.714Z,2.33
2023-02-28T00:34:01.200Z,2.50
2023-02-28T00:36:11.330Z,2.43
2023-02-28T00:38:14.388Z,2.50
2023-02-28T00:40:15.961Z,2.60
2023-02-28T00:42:19.268Z,2.53
2023-02-28T00:44:22.941Z,2.30
2023-02-28T00:46:24.599Z,2.60
2023-02-28T00:48:26.260Z,2.70
2023-02-28T00:50:37.104Z,2.70
2023-02-28T00:52:38.803Z,2.30
2023-02-28T00:54:40.354Z,2.20
2023-02-28T00:56:43.094Z,2.23
2023-02-28T00:58:44.701Z,2.30
2023-02-28T01:00:50.136Z,2.77
2023-02-28T01:02:52.037Z,2.63
2023-02-28T01:04:55.936Z,2.57
2023-02-28T01:06:57.526Z,2.40
2023-02-28T01:09:00.050Z,2.40
2023-02-28T01:11:12.871Z,2.50
2023-02-28T01:13:16.426Z,2.87
2023-02-28T01:15:18.175Z,2.50
2023-02-28T01:17:20.260Z,2.90
2023-02-28T01:19:24.579Z,2.43
2023-02-28T01:21:32.651Z,2.63
2023-02-28T01:23:37.501Z,2.70
2023-02-28T01:25:39.330Z,2.57
2023-02-28T01:27:41.189Z,2.07
2023-02-28T01:29:42.826Z,2.57
2023-02-28T01:31:44.910Z,2.40
2023-02-28T01:33:47.283Z,2.30
2023-02-28T01:35:49.167Z,2.30
2023-02-28T01:37:50.773Z,2.90
2023-02-28T01:39:52.355Z,2.53
2023-02-28T01:41:55.867Z,2.30
2023-02-28T01:44:07.320Z,2.50
2023-02-28T01:46:09.165Z,2.40
2023-02-28T01:48:13.674Z,2.90
2023-02-28T01:50:24.146Z,2.83
2023-02-28T01:52:27.990Z,2.50
2023-02-28T01:54:33.563Z,2.80
2023-02-28T01:56:37.498Z,2.53
2023-02-28T01:58:40.993Z,2.50
2023-02-28T02:00:43.780Z,2.77
2023-02-28T02:02:50.114Z,2.30
2023-02-28T02:04:59.157Z,2.80
2023-02-28T02:07:03.868Z,2.70
2023-02-28T02:09:05.570Z,2.50
2023-02-28T02:11:12.749Z,2.67
2023-02-28T02:13:41.395Z,2.60
2023-02-28T02:16:05.803Z,2.40
2023-02-28T02:18:25.983Z,2.67
2023-02-28T02:21:03.729Z,2.63
2023-02-28T02:23:27.746Z,2.60
2023-02-28T02:26:06.249Z,2.50
2023-02-28T02:28:45.013Z,2.57
2023-02-28T02:31:08.291Z,2.40
2023-02-28T02:33:34.220Z,2.57
2023-02-28T02:36:04.332Z,2.40
2023-02-28T02:38:18.622Z,2.50
2023-02-28T02:40:28.232Z,2.50
2023-02-28T02:42:58.098Z,2.57
2023-02-28T02:45:07.424Z,2.60
2023-02-28T02:47:14.087Z,2.47
2023-02-28T02:49:29.390Z,2.77
2023-02-28T02:51:33.326Z,2.80
2023-02-28T02:53:39.294Z,2.50
2023-02-28T02:55:49.562Z,2.73
2023-02-28T02:58:16.596Z,2.90
2023-02-28T03:00:24.065Z,2.87
2023-02-28T03:02:27.487Z,2.10
2023-02-28T03:04:36.243Z,2.80
2023-02-28T03:06:37.997Z,2.63
2023-02-28T03:08:39.590Z,2.60
2023-02-28T03:10:43.888Z,3.17
2023-02-28T03:13:03.229Z,2.60
2023-02-28T03:15:34.858Z,2.67
2023-02-28T03:17:46.041Z,2.90
2023-02-28T03:19:53.981Z,2.83
2023-02-28T03:22:01.480Z,2.43
2023-02-28T03:24:14.206Z,2.70
2023-02-28T03:26:23.725Z,2.80
2023-02-28T03:28:52.310Z,2.40
2023-02-28T03:31:02.065Z,2.40
2023-02-28T03:33:19.602Z,2.30
2023-02-28T03:35:51.001Z,2.57
2023-02-28T03:38:14.860Z,2.50
2023-02-28T03:40:20.646Z,2.90
2023-02-28T03:42:27.121Z,2.53
2023-02-28T03:44:37.564Z,2.60
2023-02-28T03:46:46.994Z,2.60
2023-02-28T03:48:56.142Z,2.70
2023-02-28T03:51:00.996Z,2.80
2023-02-28T03:53:09.357Z,2.70
2023-02-28T03:55:13.843Z,2.67
2023-02-28T03:57:33.917Z,2.60
2023-02-28T03:59:37.576Z,3.07
2023-02-28T04:01:42.588Z,2.63
2023-02-28T04:03:44.321Z,3.00
2023-02-28T04:05:58.714Z,2.70
2023-02-28T04:08:08.960Z,2.67
2023-02-28T04:10:14.167Z,2.60
2023-02-28T04:12:15.779Z,2.90
2023-02-28T04:14:17.217Z,2.83
2023-02-28T04:16:33.989Z,3.00
2023-02-28T04:18:36.313Z,3.00
2023-02-28T04:20:43.950Z,3.47
2023-02-28T04:22:45.465Z,3.53
2023-02-28T04:24:47.138Z,2.93
2023-02-28T04:26:51.593Z,2.90
2023-02-28T04:28:53.221Z,3.00
2023-02-28T04:30:59.259Z,3.83
2023-02-28T04:33:01.222Z,3.43
2023-02-28T04:35:03.578Z,3.10
2023-02-28T04:37:14.167Z,3.50
2023-02-28T04:39:19.485Z,3.73
2023-02-28T04:41:22.310Z,3.47
2023-02-28T04:43:23.842Z,2.97
2023-02-28T04:45:25.586Z,3.30
2023-02-28T04:47:33.328Z,2.97
2023-02-28T04:49:34.891Z,3.70
2023-02-28T04:51:36.439Z,2.97
2023-02-28T04:53:40.026Z,3.30
2023-02-28T04:55:41.624Z,4.87
2023-02-28T04:57:43.624Z,6.33
2023-02-28T04:59:45.215Z,7.47
2023-02-28T05:01:48.425Z,7.07
2023-02-28T05:03:51.100Z,7.03
2023-02-28T05:05:52.629Z,6.10
2023-02-28T05:07:55.762Z,5.53
2023-02-28T05:09:57.467Z,4.87
2023-02-28T05:11:59.136Z,4.57
2023-02-28T05:14:00.813Z,3.93
2023-02-28T05:16:02.400Z,4.10
2023-02-28T05:18:04.424Z,4.00
2023-02-28T05:20:15.301Z,4.03
2023-02-28T05:22:17.863Z,4.50
2023-02-28T05:24:26.998Z,5.37
2023-02-28T05:26:29.109Z,5.00
2023-02-28T05:28:33.712Z,5.07
2023-02-28T05:30:35.265Z,4.70
2023-02-28T05:32:47.531Z,5.07
2023-02-28T05:34:51.289Z,5.33
2023-02-28T05:36:53.317Z,5.47
2023-02-28T05:38:54.805Z,5.53
2023-02-28T05:41:00.038Z,5.13
2023-02-28T05:43:04.463Z,5.93
2023-02-28T05:45:07.947Z,5.10
2023-02-28T05:47:09.608Z,5.70
2023-02-28T05:49:11.324Z,4.80
2023-02-28T05:51:13.036Z,5.87
2023-02-28T05:53:14.855Z,5.87
2023-02-28T05:55:19.576Z,6.00
2023-02-28T05:57:24.662Z,6.23
2023-02-28T05:59:26.559Z,6.30
2023-02-28T06:01:38.554Z,6.00
2023-02-28T06:03:40.636Z,5.67
2023-02-28T06:05:42.468Z,5.83
2023-02-28T06:07:44.969Z,6.23
2023-02-28T06:09:46.930Z,5.87
2023-02-28T06:11:48.600Z,5.60
2023-02-28T06:13:51.610Z,5.43
2023-02-28T06:15:53.116Z,5.00
2023-02-28T06:17:54.828Z,5.37
2023-02-28T06:19:56.601Z,5.07
2023-02-28T06:21:58.660Z,5.30
2023-02-28T06:24:00.736Z,4.87
2023-02-28T06:26:02.915Z,4.47
2023-02-28T06:28:04.987Z,4.87
2023-02-28T06:30:07.749Z,4.97
2023-02-28T06:32:09.610Z,5.17
2023-02-28T06:34:15.356Z,5.10
2023-02-28T06:36:17.697Z,4.87
2023-02-28T06:38:22.224Z,5.30
2023-02-28T06:40:23.875Z,5.30
2023-02-28T06:42:29.701Z,5.30
2023-02-28T06:44:36.251Z,5.43
2023-02-28T06:46:40.113Z,4.87
2023-02-28T06:48:44.053Z,5.00
2023-02-28T06:50:45.845Z,5.13
2023-02-28T06:52:48.160Z,5.37
2023-02-28T06:55:00.682Z,4.97
2023-02-28T06:57:02.278Z,5.43
2023-02-28T06:59:04.570Z,5.37
2023-02-28T07:01:07.814Z,5.67
2023-02-28T07:03:09.580Z,5.50
2023-02-28T07:05:11.050Z,5.90
2023-02-28T07:07:12.675Z,5.40
2023-02-28T07:09:14.936Z,6.37
2023-02-28T07:11:20.116Z,5.83
2023-02-28T07:13:22.847Z,5.40
2023-02-28T07:15:24.484Z,6.17
2023-02-28T07:17:26.288Z,5.60
2023-02-28T07:19:30.467Z,5.30
2023-02-28T07:21:32.349Z,5.50
2023-02-28T07:23:35.232Z,5.13
2023-02-28T07:25:36.865Z,5.30
2023-02-28T07:27:38.529Z,5.00
2023-02-28T07:29:42.824Z,5.40
2023-02-28T07:31:44.480Z,5.17
2023-02-28T07:33:46.717Z,5.17
2023-02-28T07:35:48.415Z,5.23
2023-02-28T07:37:54.153Z,5.20
2023-02-28T07:39:55.684Z,5.37
2023-02-28T07:42:03.383Z,5.27
2023-02-28T07:44:05.217Z,5.63
2023-02-28T07:46:13.152Z,5.77
2023-02-28T07:48:14.680Z,5.20
2023-02-28T07:50:17.050Z,5.63
2023-02-28T07:52:18.673Z,5.30
2023-02-28T07:56:22.904Z,5.10
2023-02-28T07:58:25.421Z,5.33
2023-02-28T08:00:27.114Z,5.57
2023-02-28T08:02:28.900Z,5.63
2023-02-28T08:04:34.107Z,5.10
2023-02-28T08:06:36.143Z,5.63
2023-02-28T08:08:37.607Z,6.30
2023-02-28T08:10:39.314Z,6.17
2023-02-28T08:12:41.093Z,6.20
2023-02-28T08:14:43.063Z,5.80
2023-02-28T08:16:44.824Z,5.47
2023-02-28T08:18:46.344Z,5.40
2023-02-28T08:20:48.104Z,5.50
2023-02-28T08:22:53.620Z,5.70
2023-02-28T08:24:55.527Z,6.37
2023-02-28T08:26:57.782Z,5.07
2023-02-28T08:34:17.283Z,5.50
2023-02-28T08:36:21.004Z,6.10
2023-02-28T08:38:24.013Z,5.20
2023-02-28T08:40:25.909Z,5.05
2023-02-28T08:42:27.950Z,5.10
2023-02-28T08:44:29.739Z,5.00
2023-02-28T08:46:34.139Z,5.57
2023-02-28T08:48:38.961Z,5.40
2023-02-28T08:50:40.739Z,5.33
2023-02-28T08:52:45.178Z,5.90
2023-02-28T08:54:46.901Z,6.00
2023-02-28T08:56:48.522Z,5.70
2023-02-28T08:58:50.919Z,5.30
2023-02-28T09:00:53.368Z,5.00
2023-02-28T09:02:55.749Z,5.13
2023-02-28T09:04:57.515Z,5.60
2023-02-28T09:06:59.244Z,4.97
2023-02-28T09:09:01.986Z,4.93
2023-02-28T09:11:04.214Z,5.32
2023-02-28T09:13:07.916Z,4.90
2023-02-28T09:15:12.245Z,5.57
2023-02-28T09:17:14.190Z,5.00
2023-02-28T09:19:16.178Z,4.97
2023-02-28T09:21:20.138Z,5.00
2023-02-28T09:23:22.403Z,5.05
2023-02-28T09:25:24.180Z,5.40
2023-02-28T09:27:25.772Z,4.88
2023-02-28T09:29:29.182Z,4.57
2023-02-28T09:31:31.002Z,5.25
2023-02-28T09:33:32.825Z,4.88
2023-02-28T09:35:34.858Z,4.65
2023-02-28T09:37:36.788Z,4.88
2023-02-28T09:39:38.493Z,5.15
2023-02-28T09:41:51.894Z,4.78
2023-02-28T09:43:57.610Z,5.00
2023-02-28T09:46:13.410Z,5.20
2023-02-28T09:48:23.152Z,4.70
2023-02-28T09:50:28.011Z,4.97
2023-02-28T09:52:33.161Z,5.10
2023-02-28T09:54:34.753Z,4.93
2023-02-28T09:56:43.179Z,5.18
2023-02-28T09:59:02.201Z,5.45
2023-02-28T10:01:29.176Z,4.63
2023-02-28T10:03:43.340Z,4.90
2023-02-28T10:05:57.452Z,4.50
2023-02-28T10:08:06.097Z,4.70
2023-02-28T10:10:22.454Z,5.03
2023-02-28T10:12:26.999Z,4.07
2023-02-28T10:14:30.996Z,4.32
2023-02-28T10:16:42.732Z,4.07
2023-02-28T10:18:51.853Z,4.18
2023-02-28T10:20:56.868Z,4.30
2023-02-28T10:23:17.406Z,4.63
2023-02-28T10:25:22.894Z,4.10
2023-02-28T10:27:28.954Z,4.32
2023-02-28T10:29:33.812Z,4.03
2023-02-28T10:31:35.507Z,4.18
2023-02-28T10:33:37.148Z,4.30
2023-02-28T10:35:38.669Z,4.25
2023-02-28T10:37:45.283Z,4.75
2023-02-28T10:39:47.968Z,4.50
2023-02-28T10:41:49.723Z,4.63
2023-02-28T10:43:51.443Z,4.63
2023-02-28T10:46:11.706Z,4.97
2023-02-28T10:48:15.995Z,4.63
2023-02-28T10:50:58.940Z,5.00
2023-02-28T10:53:24.324Z,5.30
2023-02-28T10:55:26.531Z,5.20
2023-02-28T10:57:31.660Z,4.78
2023-02-28T10:59:33.440Z,4.82
2023-02-28T11:01:42.625Z,4.95
2023-02-28T11:03:44.604Z,4.78
2023-02-28T11:05:47.382Z,4.43
2023-02-28T11:07:56.911Z,4.55
2023-02-28T11:09:59.463Z,4.63
2023-02-28T11:12:03.088Z,5.28
2023-02-28T11:14:26.727Z,5.13
2023-02-28T11:16:41.134Z,4.63
2023-02-28T11:18:48.916Z,4.93
2023-02-28T11:20:52.719Z,4.15
2023-02-28T11:22:57.161Z,4.78
2023-02-28T11:25:03.064Z,4.95
2023-02-28T11:27:04.984Z,5.03
2023-02-28T11:29:20.492Z,4.57
2023-02-28T11:31:23.523Z,4.30
2023-02-28T11:33:50.209Z,4.00
2023-02-28T11:36:02.992Z,4.00
2023-02-28T11:38:14.147Z,4.20
2023-02-28T11:40:21.255Z,4.38
2023-02-28T11:43:01.908Z,4.18
2023-02-28T11:45:23.994Z,4.40
2023-02-28T11:47:44.690Z,4.07
2023-02-28T11:50:04.999Z,4.30
2023-02-28T11:52:31.318Z,4.72
2023-02-28T11:55:00.169Z,4.50
2023-02-28T11:57:12.829Z,4.40
2023-02-28T11:59:52.130Z,3.80
2023-02-28T12:02:22.259Z,3.90
2023-02-28T12:04:51.996Z,3.85
2023-02-28T12:07:19.245Z,4.30
2023-02-28T12:09:42.654Z,4.90
2023-02-28T12:11:59.474Z,4.95
2023-02-28T12:14:16.353Z,4.53
2023-02-28T12:16:36.866Z,4.80
2023-02-28T12:18:50.456Z,4.30
2023-02-28T12:21:02.696Z,5.05
2023-02-28T12:23:43.363Z,4.68
2023-02-28T12:26:22.274Z,4.40
2023-02-28T12:28:29.687Z,4.43
2023-02-28T12:30:35.071Z,4.60
2023-02-28T12:32:45.818Z,4.50
2023-02-28T12:34:53.148Z,4.55
2023-02-28T12:36:59.650Z,4.43
2023-02-28T12:39:32.671Z,4.85
2023-02-28T12:41:43.489Z,4.43
2023-02-28T12:43:56.922Z,3.88
2023-02-28T12:46:18.917Z,3.35
2023-02-28T12:48:38.494Z,4.57
2023-02-28T12:50:41.224Z,3.95
2023-02-28T12:53:04.562Z,4.00
2023-02-28T12:55:15.346Z,4.32
2023-02-28T12:57:35.258Z,4.35
2023-02-28T12:59:47.026Z,4.38
2023-02-28T13:02:02.497Z,4.38
2023-02-28T13:04:36.026Z,4.20
2023-02-28T13:07:14.482Z,3.85
2023-02-28T13:09:20.542Z,4.45
2023-02-28T13:11:39.281Z,4.50
2023-02-28T13:13:46.339Z,4.65
2023-02-28T13:16:01.277Z,4.05
2023-02-28T13:18:03.084Z,4.15
2023-02-28T13:20:05.022Z,4.40
2023-02-28T13:22:20.937Z,5.10
2023-02-28T13:25:00.526Z,4.57
2023-02-28T13:27:01.973Z,4.50
2023-02-28T13:29:28.683Z,4.50
2023-02-28T13:31:30.717Z,4.10
2023-02-28T13:33:36.717Z,4.88
2023-02-28T13:35:46.164Z,4.32
2023-02-28T13:37:50.747Z,4.60
2023-02-28T13:39:56.315Z,4.35
2023-02-28T13:41:58.416Z,4.72
2023-02-28T13:44:02.366Z,4.47
2023-02-28T13:46:13.888Z,5.10
2023-02-28T13:48:20.348Z,4.25
2023-02-28T13:50:30.908Z,4.70
2023-02-28T13:52:35.354Z,3.75
2023-02-28T13:55:00.120Z,3.80
2023-02-28T13:57:36.818Z,4.60
2023-02-28T13:59:46.187Z,4.32
2023-02-28T14:01:52.528Z,4.35
2023-02-28T14:04:04.284Z,4.38
2023-02-28T14:06:31.360Z,4.63
2023-02-28T14:08:34.967Z,4.70
2023-02-28T14:10:43.702Z,4.90
2023-02-28T14:12:57.468Z,4.50
2023-02-28T14:14:59.191Z,4.82
2023-02-28T14:17:02.584Z,5.22
2023-02-28T14:19:12.953Z,4.90
2023-02-28T14:21:29.967Z,4.90
2023-02-28T14:23:58.769Z,4.95
2023-02-28T14:26:08.357Z,4.88
2023-02-28T14:28:25.865Z,4.63
2023-02-28T14:30:47.278Z,5.32
2023-02-28T14:33:00.512Z,5.28
2023-02-28T14:35:29.791Z,4.35
2023-02-28T14:37:38.190Z,4.75
2023-02-28T14:39:44.834Z,4.22
2023-02-28T14:41:47.306Z,4.50
2023-02-28T14:43:55.599Z,4.35
2023-02-28T14:46:02.788Z,4.53
2023-02-28T14:48:10.943Z,4.35
2023-02-28T14:50:33.565Z,4.43
2023-02-28T14:52:35.963Z,4.50
2023-02-28T14:54:39.243Z,4.57
2023-02-28T14:56:41.493Z,4.38
2023-02-28T14:58:52.852Z,4.68
2023-02-28T15:00:57.650Z,4.80
2023-02-28T15:03:19.236Z,4.97
2023-02-28T15:05:34.367Z,4.90
2023-02-28T15:07:36.149Z,5.47
2023-02-28T15:09:37.841Z,5.40
2023-02-28T15:11:40.835Z,5.40
2023-02-28T15:13:48.767Z,4.88
2023-02-28T15:16:05.132Z,5.05
2023-02-28T15:18:08.501Z,5.28
2023-02-28T15:20:14.652Z,4.93
2023-02-28T15:22:20.334Z,5.20
2023-02-28T15:24:32.650Z,5.50
2023-02-28T15:26:39.611Z,5.65
2023-02-28T15:28:41.759Z,5.60
2023-02-28T15:31:23.982Z,5.78
2023-02-28T15:33:31.011Z,5.60
2023-02-28T15:35:33.922Z,5.75
2023-02-28T15:37:57.783Z,6.22
2023-02-28T15:40:13.263Z,5.18
2023-02-28T15:42:21.606Z,4.80
2023-02-28T15:44:36.953Z,4.57
2023-02-28T15:46:40.734Z,4.80
2023-02-28T15:48:58.018Z,5.15
2023-02-28T15:51:09.912Z,5.90
2023-02-28T15:53:18.645Z,5.72
2023-02-28T15:55:24.871Z,6.80
2023-02-28T15:57:30.274Z,7.43
2023-02-28T15:59:32.327Z,7.35
2023-02-28T16:01:36.816Z,6.93
2023-02-28T16:03:42.097Z,6.43
2023-02-28T16:05:43.773Z,5.68
2023-02-28T16:07:49.814Z,5.82
2023-02-28T16:09:54.327Z,5.22
2023-02-28T16:11:59.846Z,4.90
2023-02-28T16:14:01.668Z,5.25
2023-02-28T16:16:03.714Z,5.55
2023-02-28T16:18:05.372Z,5.80
2023-02-28T16:20:17.178Z,5.75
2023-02-28T16:22:18.679Z,5.75
2023-02-28T16:24:23.202Z,6.13
2023-02-28T16:26:28.432Z,6.03
2023-02-28T16:28:39.411Z,6.28
2023-02-28T16:30:41.285Z,5.55
2023-02-28T16:32:43.010Z,6.50
2023-02-28T16:34:45.049Z,6.45
2023-02-28T16:36:48.387Z,7.30
2023-02-28T16:38:51.409Z,7.53
2023-02-28T16:40:56.248Z,7.50
2023-02-28T16:43:00.645Z,8.00
2023-02-28T16:45:04.820Z,7.70
2023-02-28T16:47:06.878Z,11.40
2023-02-28T16:49:13.382Z,15.13
2023-02-28T16:51:21.485Z,15.05
2023-02-28T16:53:24.515Z,12.68
2023-02-28T16:55:27.821Z,10.70
2023-02-28T16:57:29.334Z,8.65
2023-02-28T16:59:31.675Z,7.28
2023-02-28T17:01:33.744Z,7.82
2023-02-28T17:03:37.334Z,7.18
2023-02-28T17:05:40.683Z,9.35
2023-02-28T17:07:43.449Z,10.10
2023-02-28T17:09:46.769Z,12.25
2023-02-28T17:11:50.013Z,10.98
2023-02-28T17:13:51.585Z,9.52
2023-02-28T17:15:53.467Z,8.38
2023-02-28T17:17:55.245Z,9.57
2023-02-28T17:19:56.934Z,8.52
2023-02-28T17:21:58.627Z,8.60
2023-02-28T17:24:02.844Z,7.90
2023-02-28T17:26:09.986Z,8.25
2023-02-28T17:28:11.629Z,8.13
2023-02-28T17:30:24.676Z,8.02
2023-02-28T17:32:26.976Z,8.43
2023-02-28T17:34:28.570Z,8.68
2023-02-28T17:36:30.563Z,8.60
2023-02-28T17:38:32.234Z,9.07
2023-02-28T17:40:34.839Z,9.43
2023-02-28T17:42:36.458Z,9.13
2023-02-28T17:44:38.705Z,9.85
2023-02-28T17:46:40.783Z,10.13
2023-02-28T17:48:43.465Z,10.05
2023-02-28T17:50:45.294Z,9.45
2023-02-28T17:52:47.324Z,10.32
2023-02-28T17:54:50.126Z,10.52
2023-02-28T17:56:51.730Z,12.60
2023-02-28T17:58:55.511Z,13.15
2023-02-28T18:00:57.430Z,13.30
2023-02-28T18:02:59.130Z,13.13
2023-02-28T18:05:00.770Z,11.55
2023-02-28T18:07:02.414Z,11.15
2023-02-28T18:09:04.031Z,10.13
2023-02-28T18:11:17.938Z,9.52
2023-02-28T18:13:19.658Z,8.90
2023-02-28T18:15:22.759Z,8.02
2023-02-28T18:17:27.232Z,8.73
2023-02-28T18:19:28.688Z,8.13
2023-02-28T18:21:30.603Z,8.35
2023-02-28T18:23:32.624Z,8.07
2023-02-28T18:25:34.519Z,7.63
2023-02-28T18:27:37.347Z,8.15
2023-02-28T18:29:40.705Z,8.50
2023-02-28T18:31:43.931Z,12.00
2023-02-28T18:33:49.527Z,14.25
2023-02-28T18:35:56.235Z,18.77
2023-02-28T18:37:57.934Z,21.85
2023-02-28T18:39:59.540Z,20.63
2023-02-28T18:42:01.207Z,19.17
2023-02-28T18:44:13.706Z,16.00
2023-02-28T18:46:22.176Z,14.60
2023-02-28T18:48:24.398Z,17.77
2023-02-28T18:50:26.201Z,18.55
2023-02-28T18:52:29.206Z,19.55
2023-02-28T18:54:31.091Z,18.05
2023-02-28T18:56:33.169Z,15.30
2023-02-28T18:58:36.694Z,13.27
2023-02-28T19:00:38.980Z,10.68
2023-02-28T19:02:40.818Z,7.65
2023-02-28T19:04:43.227Z,7.18
2023-02-28T19:06:44.705Z,7.30
2023-02-28T19:08:47.395Z,7.50
2023-02-28T19:10:49.149Z,8.38
2023-02-28T19:12:50.903Z,8.90
2023-02-28T19:14:52.769Z,8.55
2023-02-28T19:16:54.887Z,9.30
2023-02-28T19:18:59.585Z,10.63
2023-02-28T19:21:01.696Z,11.50
2023-02-28T19:23:03.568Z,11.67
2023-02-28T19:25:06.464Z,12.53
2023-02-28T19:27:09.558Z,12.37
2023-02-28T19:29:11.743Z,11.18
2023-02-28T19:31:24.947Z,10.80
2023-02-28T19:33:26.866Z,9.13
2023-02-28T19:35:28.498Z,9.70
2023-02-28T19:37:30.291Z,10.43
2023-02-28T19:39:41.933Z,12.90
2023-02-28T19:41:43.412Z,12.93
2023-02-28T19:43:45.661Z,12.35
2023-02-28T19:45:49.106Z,12.83
2023-02-28T19:47:56.271Z,12.03
2023-02-28T19:49:58.239Z,12.40
2023-02-28T19:52:00.476Z,12.43
2023-02-28T19:54:05.544Z,11.43
2023-02-28T19:56:08.693Z,11.40
2023-02-28T19:58:10.791Z,13.90
2023-02-28T20:00:16.471Z,19.13
2023-02-28T20:02:22.504Z,28.87
2023-02-28T20:04:25.027Z,41.23
2023-02-28T20:06:32.605Z,43.83
2023-02-28T20:08:34.781Z,41.47
2023-02-28T20:10:38.064Z,36.90
2023-02-28T20:12:39.881Z,29.00
2023-02-28T20:14:42.548Z,22.83
2023-02-28T20:16:46.235Z,20.00
2023-02-28T20:18:53.830Z,15.57
2023-02-28T20:20:55.850Z,13.70
2023-02-28T20:22:57.604Z,12.77
2023-02-28T20:24:59.757Z,12.03
2023-02-28T20:27:04.363Z,10.97
2023-02-28T20:29:07.791Z,11.63
2023-02-28T20:31:22.242Z,10.37
2023-02-28T20:33:25.464Z,10.63
2023-02-28T20:35:27.196Z,11.23
2023-02-28T20:37:31.537Z,12.00
2023-02-28T20:39:33.346Z,11.87
2023-02-28T20:41:34.912Z,12.17
2023-02-28T20:43:40.145Z,12.57
2023-02-28T20:45:50.906Z,12.93
2023-02-28T20:47:52.647Z,13.43
2023-02-28T20:49:54.655Z,13.30
2023-02-28T20:51:56.374Z,12.80
2023-02-28T20:53:58.136Z,13.07
2023-02-28T20:56:01.820Z,11.53
2023-02-28T20:58:04.438Z,12.13
2023-02-28T21:00:11.069Z,10.50
2023-02-28T21:02:19.571Z,10.73
2023-02-28T21:04:23.143Z,9.97
2023-02-28T21:06:31.586Z,9.80
2023-02-28T21:08:35.696Z,10.33
2023-02-28T21:10:37.303Z,10.23
2023-02-28T21:12:38.828Z,10.50
2023-02-28T21:14:41.261Z,10.17
2023-02-28T21:16:46.174Z,10.83
2023-02-28T21:18:49.043Z,10.47
2023-02-28T21:20:50.685Z,10.23
2023-02-28T21:22:54.976Z,10.47
2023-02-28T21:24:59.455Z,11.50
2023-02-28T21:27:02.066Z,14.57
2023-02-28T21:29:04.489Z,15.40
2023-02-28T21:31:15.753Z,16.03
2023-02-28T21:33:17.382Z,14.90
2023-02-28T21:35:21.687Z,13.20
2023-02-28T21:37:23.403Z,11.37
2023-02-28T21:39:27.151Z,11.03
2023-02-28T21:41:28.883Z,10.10
2023-02-28T21:43:31.030Z,9.27
2023-02-28T21:45:34.335Z,9.93
2023-02-28T21:47:36.007Z,9.63
2023-02-28T21:49:40.282Z,9.33
2023-02-28T21:51:43.056Z,8.90
2023-02-28T21:53:46.710Z,9.43
2023-02-28T21:55:48.425Z,9.67
2023-02-28T21:57:53.635Z,10.00
2023-02-28T21:59:55.579Z,8.70
2023-02-28T22:02:08.324Z,9.60
2023-02-28T22:04:20.933Z,9.07
2023-02-28T22:06:26.543Z,8.90
2023-02-28T22:08:28.198Z,8.57
2023-02-28T22:10:29.767Z,8.80
2023-02-28T22:12:33.915Z,10.53
2023-02-28T22:14:40.013Z,8.57
2023-02-28T22:16:57.520Z,9.57
2023-02-28T22:19:00.204Z,8.57
2023-02-28T22:21:02.100Z,9.20
2023-02-28T22:23:03.731Z,9.73
2023-02-28T22:25:06.702Z,10.30
2023-02-28T22:27:08.485Z,9.63
2023-02-28T22:29:10.046Z,9.73
2023-02-28T22:31:14.991Z,9.60
2023-02-28T22:33:20.202Z,9.70
2023-02-28T22:35:22.284Z,10.33
2023-02-28T22:37:23.706Z,10.33
2023-02-28T22:39:31.099Z,9.70
2023-02-28T22:41:33.439Z,9.97
2023-02-28T22:43:35.050Z,10.00
2023-02-28T22:45:42.384Z,9.77
2023-02-28T22:47:44.139Z,9.33
2023-02-28T22:49:45.802Z,9.60
2023-02-28T22:51:47.488Z,9.10
2023-02-28T22:53:50.246Z,9.70
2023-02-28T22:55:56.300Z,10.37
2023-02-28T22:57:57.755Z,10.53
2023-02-28T22:59:59.485Z,11.63
2023-02-28T23:02:04.042Z,10.67
2023-02-28T23:04:07.033Z,11.23
2023-02-28T23:06:27.791Z,11.10
2023-02-28T23:08:29.426Z,10.77
2023-02-28T23:10:36.371Z,11.90
2023-02-28T23:12:50.169Z,11.73
2023-02-28T23:14:53.159Z,12.03
2023-02-28T23:16:54.926Z,11.80
2023-02-28T23:18:57.461Z,12.03
2023-02-28T23:20:58.972Z,12.40
2023-02-28T23:23:00.565Z,11.33
2023-02-28T23:25:02.143Z,10.90
2023-02-28T23:27:05.325Z,10.70
2023-02-28T23:29:07.213Z,10.60
2023-02-28T23:31:08.979Z,11.00
2023-02-28T23:33:10.677Z,9.70
2023-02-28T23:35:12.386Z,11.00
2023-02-28T23:37:14.103Z,11.30
2023-02-28T23:39:17.634Z,10.97
2023-02-28T23:41:21.865Z,12.17
2023-02-28T23:43:24.142Z,12.10
2023-02-28T23:45:26.381Z,12.00
2023-02-28T23:47:28.016Z,11.70
2023-02-28T23:49:29.710Z,11.90
2023-02-28T23:51:31.523Z,11.23
2023-02-28T23:53:33.787Z,11.67
2023-02-28T23:55:35.614Z,11.53
2023-02-28T23:57:40.295Z,11.20
2023-02-28T23:59:41.908Z,10.60
